sensor_id;sensor_type;location;lat;lon;timestamp;temperature;humidity
78649;DHT22;67962;47.310;9.642;2023-04-24T00:01:43;12.70;70.40
78649;DHT22;67962;47.310;9.642;2023-04-24T00:04:09;12.80;70.30
78649;DHT22;67962;47.310;9.642;2023-04-24T00:06:37;12.80;70.00
78649;DHT22;67962;47.310;9.642;2023-04-24T00:09:03;12.80;70.00
78649;DHT22;67962;47.310;9.642;2023-04-24T00:11:30;12.90;69.90
78649;DHT22;67962;47.310;9.642;2023-04-24T00:13:56;12.90;70.30
78649;DHT22;67962;47.310;9.642;2023-04-24T00:16:22;12.80;70.70
78649;DHT22;67962;47.310;9.642;2023-04-24T00:18:48;12.70;71.20
78649;DHT22;67962;47.310;9.642;2023-04-24T00:21:15;12.60;71.60
78649;DHT22;67962;47.310;9.642;2023-04-24T00:23:43;12.60;71.90
78649;DHT22;67962;47.310;9.642;2023-04-24T00:26:10;12.60;72.00
78649;DHT22;67962;47.310;9.642;2023-04-24T00:28:35;12.60;72.10
78649;DHT22;67962;47.310;9.642;2023-04-24T00:31:01;12.60;72.40
78649;DHT22;67962;47.310;9.642;2023-04-24T00:33:27;12.50;72.70
78649;DHT22;67962;47.310;9.642;2023-04-24T00:35:53;12.40;73.00
78649;DHT22;67962;47.310;9.642;2023-04-24T00:38:18;12.20;73.50
78649;DHT22;67962;47.310;9.642;2023-04-24T00:40:44;12.10;73.50
78649;DHT22;67962;47.310;9.642;2023-04-24T00:43:11;12.20;73.40
78649;DHT22;67962;47.310;9.642;2023-04-24T00:45:37;12.30;73.20
78649;DHT22;67962;47.310;9.642;2023-04-24T00:48:03;12.30;72.40
78649;DHT22;67962;47.310;9.642;2023-04-24T00:50:30;12.30;72.50
78649;DHT22;67962;47.310;9.642;2023-04-24T00:52:56;12.40;72.20
78649;DHT22;67962;47.310;9.642;2023-04-24T00:55:21;12.30;72.10
78649;DHT22;67962;47.310;9.642;2023-04-24T00:57:48;12.40;72.20
78649;DHT22;67962;47.310;9.642;2023-04-24T01:00:15;12.50;71.80
78649;DHT22;67962;47.310;9.642;2023-04-24T01:02:43;12.50;71.90
78649;DHT22;67962;47.310;9.642;2023-04-24T01:05:11;12.40;71.80
78649;DHT22;67962;47.310;9.642;2023-04-24T01:07:39;12.40;71.90
78649;DHT22;67962;47.310;9.642;2023-04-24T01:10:06;12.30;72.10
78649;DHT22;67962;47.310;9.642;2023-04-24T01:12:32;12.40;72.20
78649;DHT22;67962;47.310;9.642;2023-04-24T01:14:58;12.40;72.50
78649;DHT22;67962;47.310;9.642;2023-04-24T01:17:24;12.20;72.20
78649;DHT22;67962;47.310;9.642;2023-04-24T01:19:50;12.20;72.20
78649;DHT22;67962;47.310;9.642;2023-04-24T01:22:19;12.10;72.60
78649;DHT22;67962;47.310;9.642;2023-04-24T01:24:46;12.00;72.50
78649;DHT22;67962;47.310;9.642;2023-04-24T01:27:12;12.00;72.30
78649;DHT22;67962;47.310;9.642;2023-04-24T01:29:38;12.00;72.30
78649;DHT22;67962;47.310;9.642;2023-04-24T01:32:04;12.00;72.50
78649;DHT22;67962;47.310;9.642;2023-04-24T01:34:31;12.00;72.60
78649;DHT22;67962;47.310;9.642;2023-04-24T01:36:57;12.00;72.70
78649;DHT22;67962;47.310;9.642;2023-04-24T01:39:23;12.00;72.90
78649;DHT22;67962;47.310;9.642;2023-04-24T01:41:51;12.10;72.60
78649;DHT22;67962;47.310;9.642;2023-04-24T01:44:18;12.20;72.40
78649;DHT22;67962;47.310;9.642;2023-04-24T01:46:44;12.10;72.30
78649;DHT22;67962;47.310;9.642;2023-04-24T01:49:10;12.00;72.50
78649;DHT22;67962;47.310;9.642;2023-04-24T01:51:36;12.00;72.50
78649;DHT22;67962;47.310;9.642;2023-04-24T01:54:02;12.00;72.50
78649;DHT22;67962;47.310;9.642;2023-04-24T01:56:33;12.00;72.60
78649;DHT22;67962;47.310;9.642;2023-04-24T01:59:03;12.00;72.70
78649;DHT22;67962;47.310;9.642;2023-04-24T02:01:34;11.90;72.70
78649;DHT22;67962;47.310;9.642;2023-04-24T02:04:01;11.90;72.70
78649;DHT22;67962;47.310;9.642;2023-04-24T02:06:27;11.90;72.50
78649;DHT22;67962;47.310;9.642;2023-04-24T02:08:53;12.00;72.80
78649;DHT22;67962;47.310;9.642;2023-04-24T02:11:18;12.00;72.70
78649;DHT22;67962;47.310;9.642;2023-04-24T02:13:44;12.20;72.40
78649;DHT22;67962;47.310;9.642;2023-04-24T02:16:10;12.30;71.90
78649;DHT22;67962;47.310;9.642;2023-04-24T02:18:36;12.40;71.40
78649;DHT22;67962;47.310;9.642;2023-04-24T02:21:02;12.40;71.30
78649;DHT22;67962;47.310;9.642;2023-04-24T02:23:27;12.40;71.50
78649;DHT22;67962;47.310;9.642;2023-04-24T02:25:54;12.30;71.10
78649;DHT22;67962;47.310;9.642;2023-04-24T02:28:20;12.30;71.40
78649;DHT22;67962;47.310;9.642;2023-04-24T02:30:45;12.20;71.50
78649;DHT22;67962;47.310;9.642;2023-04-24T02:33:11;12.20;71.60
78649;DHT22;67962;47.310;9.642;2023-04-24T02:35:37;12.30;71.70
78649;DHT22;67962;47.310;9.642;2023-04-24T02:38:03;12.20;71.80
78649;DHT22;67962;47.310;9.642;2023-04-24T02:40:29;12.10;72.20
78649;DHT22;67962;47.310;9.642;2023-04-24T02:42:55;12.10;72.50
78649;DHT22;67962;47.310;9.642;2023-04-24T02:45:21;12.10;72.30
78649;DHT22;67962;47.310;9.642;2023-04-24T02:47:47;12.10;72.00
78649;DHT22;67962;47.310;9.642;2023-04-24T02:50:12;12.00;72.40
78649;DHT22;67962;47.310;9.642;2023-04-24T02:52:38;12.00;72.50
78649;DHT22;67962;47.310;9.642;2023-04-24T02:55:05;11.90;72.50
78649;DHT22;67962;47.310;9.642;2023-04-24T02:57:30;12.00;72.60
78649;DHT22;67962;47.310;9.642;2023-04-24T02:59:56;12.00;72.50
78649;DHT22;67962;47.310;9.642;2023-04-24T03:02:22;12.00;72.30
78649;DHT22;67962;47.310;9.642;2023-04-24T03:04:47;12.00;72.30
78649;DHT22;67962;47.310;9.642;2023-04-24T03:07:14;12.00;72.40
78649;DHT22;67962;47.310;9.642;2023-04-24T03:09:40;11.90;72.50
78649;DHT22;67962;47.310;9.642;2023-04-24T03:12:06;11.90;72.50
78649;DHT22;67962;47.310;9.642;2023-04-24T03:14:32;11.90;72.50
78649;DHT22;67962;47.310;9.642;2023-04-24T03:16:58;11.80;72.60
78649;DHT22;67962;47.310;9.642;2023-04-24T03:19:24;11.80;72.90
78649;DHT22;67962;47.310;9.642;2023-04-24T03:21:50;11.80;72.80
78649;DHT22;67962;47.310;9.642;2023-04-24T03:24:16;11.70;72.70
78649;DHT22;67962;47.310;9.642;2023-04-24T03:26:41;11.60;72.90
78649;DHT22;67962;47.310;9.642;2023-04-24T03:29:07;11.60;73.30
78649;DHT22;67962;47.310;9.642;2023-04-24T03:31:33;11.60;73.60
78649;DHT22;67962;47.310;9.642;2023-04-24T03:33:58;11.60;73.30
78649;DHT22;67962;47.310;9.642;2023-04-24T03:36:24;11.60;73.50
78649;DHT22;67962;47.310;9.642;2023-04-24T03:38:51;11.80;73.20
78649;DHT22;67962;47.310;9.642;2023-04-24T03:41:17;11.70;73.10
78649;DHT22;67962;47.310;9.642;2023-04-24T03:43:42;11.80;73.10
78649;DHT22;67962;47.310;9.642;2023-04-24T03:46:08;11.90;73.00
78649;DHT22;67962;47.310;9.642;2023-04-24T03:48:35;11.90;72.30
78649;DHT22;67962;47.310;9.642;2023-04-24T03:51:00;11.90;72.40
78649;DHT22;67962;47.310;9.642;2023-04-24T03:53:26;11.90;72.60
78649;DHT22;67962;47.310;9.642;2023-04-24T03:55:53;11.90;72.20
78649;DHT22;67962;47.310;9.642;2023-04-24T03:58:18;11.90;71.60
78649;DHT22;67962;47.310;9.642;2023-04-24T04:00:44;12.00;71.60
78649;DHT22;67962;47.310;9.642;2023-04-24T04:03:12;12.00;71.50
78649;DHT22;67962;47.310;9.642;2023-04-24T04:05:39;12.00;71.60
78649;DHT22;67962;47.310;9.642;2023-04-24T04:08:05;12.00;71.80
78649;DHT22;67962;47.310;9.642;2023-04-24T04:10:31;12.10;71.70
78649;DHT22;67962;47.310;9.642;2023-04-24T04:12:56;12.10;71.30
78649;DHT22;67962;47.310;9.642;2023-04-24T04:15:22;12.10;70.70
78649;DHT22;67962;47.310;9.642;2023-04-24T04:17:47;12.10;70.90
78649;DHT22;67962;47.310;9.642;2023-04-24T04:20:13;11.90;71.40
78649;DHT22;67962;47.310;9.642;2023-04-24T04:22:39;11.80;71.80
78649;DHT22;67962;47.310;9.642;2023-04-24T04:25:05;11.80;71.80
78649;DHT22;67962;47.310;9.642;2023-04-24T04:27:32;11.70;72.20
78649;DHT22;67962;47.310;9.642;2023-04-24T04:30:00;11.60;72.50
78649;DHT22;67962;47.310;9.642;2023-04-24T04:32:33;11.70;72.70
78649;DHT22;67962;47.310;9.642;2023-04-24T04:35:00;11.60;72.90
78649;DHT22;67962;47.310;9.642;2023-04-24T04:37:30;11.60;72.90
78649;DHT22;67962;47.310;9.642;2023-04-24T04:39:59;11.60;72.40
78649;DHT22;67962;47.310;9.642;2023-04-24T04:42:28;11.70;72.40
78649;DHT22;67962;47.310;9.642;2023-04-24T04:44:54;11.70;72.60
78649;DHT22;67962;47.310;9.642;2023-04-24T04:47:22;11.60;72.70
78649;DHT22;67962;47.310;9.642;2023-04-24T04:49:50;11.60;72.80
78649;DHT22;67962;47.310;9.642;2023-04-24T04:52:19;11.50;72.20
78649;DHT22;67962;47.310;9.642;2023-04-24T04:54:45;11.60;72.40
78649;DHT22;67962;47.310;9.642;2023-04-24T04:57:11;11.70;72.40
78649;DHT22;67962;47.310;9.642;2023-04-24T04:59:37;11.60;72.70
78649;DHT22;67962;47.310;9.642;2023-04-24T05:02:03;11.60;72.70
78649;DHT22;67962;47.310;9.642;2023-04-24T05:04:29;11.60;72.70
78649;DHT22;67962;47.310;9.642;2023-04-24T05:06:55;11.60;72.60
78649;DHT22;67962;47.310;9.642;2023-04-24T05:09:21;11.70;72.60
78649;DHT22;67962;47.310;9.642;2023-04-24T05:11:47;11.70;72.70
78649;DHT22;67962;47.310;9.642;2023-04-24T05:14:13;11.80;72.20
78649;DHT22;67962;47.310;9.642;2023-04-24T05:16:39;11.90;72.10
78649;DHT22;67962;47.310;9.642;2023-04-24T05:19:05;11.80;71.90
78649;DHT22;67962;47.310;9.642;2023-04-24T05:21:31;11.70;72.10
78649;DHT22;67962;47.310;9.642;2023-04-24T05:23:57;11.80;72.40
78649;DHT22;67962;47.310;9.642;2023-04-24T05:26:23;11.70;72.70
78649;DHT22;67962;47.310;9.642;2023-04-24T05:28:49;11.70;72.90
78649;DHT22;67962;47.310;9.642;2023-04-24T05:31:15;11.60;72.90
78649;DHT22;67962;47.310;9.642;2023-04-24T05:33:43;11.60;73.20
78649;DHT22;67962;47.310;9.642;2023-04-24T05:36:08;11.60;73.00
78649;DHT22;67962;47.310;9.642;2023-04-24T05:38:34;11.60;72.90
78649;DHT22;67962;47.310;9.642;2023-04-24T05:41:00;11.70;72.60
78649;DHT22;67962;47.310;9.642;2023-04-24T05:43:25;11.70;72.70
78649;DHT22;67962;47.310;9.642;2023-04-24T05:45:51;11.70;72.90
78649;DHT22;67962;47.310;9.642;2023-04-24T05:48:18;11.70;72.80
78649;DHT22;67962;47.310;9.642;2023-04-24T05:50:45;11.80;72.80
78649;DHT22;67962;47.310;9.642;2023-04-24T05:53:12;11.90;72.70
78649;DHT22;67962;47.310;9.642;2023-04-24T05:55:38;11.90;72.30
78649;DHT22;67962;47.310;9.642;2023-04-24T05:58:04;11.90;72.00
78649;DHT22;67962;47.310;9.642;2023-04-24T06:00:30;12.00;72.20
78649;DHT22;67962;47.310;9.642;2023-04-24T06:02:56;11.90;72.30
78649;DHT22;67962;47.310;9.642;2023-04-24T06:05:21;11.80;71.60
78649;DHT22;67962;47.310;9.642;2023-04-24T06:07:48;11.80;71.80
78649;DHT22;67962;47.310;9.642;2023-04-24T06:10:13;11.80;72.20
78649;DHT22;67962;47.310;9.642;2023-04-24T06:12:39;11.80;72.60
78649;DHT22;67962;47.310;9.642;2023-04-24T06:15:06;11.70;72.80
78649;DHT22;67962;47.310;9.642;2023-04-24T06:17:32;11.70;72.90
78649;DHT22;67962;47.310;9.642;2023-04-24T06:19:58;11.80;72.60
78649;DHT22;67962;47.310;9.642;2023-04-24T06:22:23;11.90;72.00
78649;DHT22;67962;47.310;9.642;2023-04-24T06:24:49;11.90;71.60
78649;DHT22;67962;47.310;9.642;2023-04-24T06:27:15;11.90;71.90
78649;DHT22;67962;47.310;9.642;2023-04-24T06:29:41;11.80;71.80
78649;DHT22;67962;47.310;9.642;2023-04-24T06:32:06;11.80;72.50
78649;DHT22;67962;47.310;9.642;2023-04-24T06:34:33;11.80;72.70
78649;DHT22;67962;47.310;9.642;2023-04-24T06:37:00;11.70;73.00
78649;DHT22;67962;47.310;9.642;2023-04-24T06:39:25;11.70;73.10
78649;DHT22;67962;47.310;9.642;2023-04-24T06:41:51;11.70;73.20
78649;DHT22;67962;47.310;9.642;2023-04-24T06:44:17;11.70;73.30
78649;DHT22;67962;47.310;9.642;2023-04-24T06:46:42;11.60;73.10
78649;DHT22;67962;47.310;9.642;2023-04-24T06:49:09;11.50;73.80
78649;DHT22;67962;47.310;9.642;2023-04-24T06:51:35;11.50;73.20
78649;DHT22;67962;47.310;9.642;2023-04-24T06:54:01;11.40;73.20
78649;DHT22;67962;47.310;9.642;2023-04-24T06:56:27;11.30;73.40
78649;DHT22;67962;47.310;9.642;2023-04-24T06:58:54;11.20;73.40
78649;DHT22;67962;47.310;9.642;2023-04-24T07:01:20;11.10;71.40
78649;DHT22;67962;47.310;9.642;2023-04-24T07:03:46;11.00;72.60
78649;DHT22;67962;47.310;9.642;2023-04-24T07:06:11;10.80;73.10
78649;DHT22;67962;47.310;9.642;2023-04-24T07:08:38;10.80;73.50
78649;DHT22;67962;47.310;9.642;2023-04-24T07:11:04;10.90;73.60
78649;DHT22;67962;47.310;9.642;2023-04-24T07:13:29;10.90;72.40
78649;DHT22;67962;47.310;9.642;2023-04-24T07:15:55;11.00;73.90
78649;DHT22;67962;47.310;9.642;2023-04-24T07:18:21;11.10;73.50
78649;DHT22;67962;47.310;9.642;2023-04-24T07:20:47;11.20;73.10
78649;DHT22;67962;47.310;9.642;2023-04-24T07:23:15;11.30;72.90
78649;DHT22;67962;47.310;9.642;2023-04-24T07:25:41;11.20;73.00
78649;DHT22;67962;47.310;9.642;2023-04-24T07:28:07;11.20;71.30
78649;DHT22;67962;47.310;9.642;2023-04-24T07:30:33;11.40;73.00
78649;DHT22;67962;47.310;9.642;2023-04-24T07:32:59;11.60;72.10
78649;DHT22;67962;47.310;9.642;2023-04-24T07:35:25;11.70;73.00
78649;DHT22;67962;47.310;9.642;2023-04-24T07:37:53;11.90;70.70
78649;DHT22;67962;47.310;9.642;2023-04-24T07:40:19;11.90;70.70
78649;DHT22;67962;47.310;9.642;2023-04-24T07:42:45;12.10;70.40
78649;DHT22;67962;47.310;9.642;2023-04-24T07:45:14;12.30;71.40
78649;DHT22;67962;47.310;9.642;2023-04-24T07:47:41;12.40;71.60
78649;DHT22;67962;47.310;9.642;2023-04-24T07:50:09;12.70;71.30
78649;DHT22;67962;47.310;9.642;2023-04-24T07:52:35;12.90;69.80
78649;DHT22;67962;47.310;9.642;2023-04-24T07:55:01;13.20;68.10
78649;DHT22;67962;47.310;9.642;2023-04-24T07:57:28;13.40;68.30
78649;DHT22;67962;47.310;9.642;2023-04-24T07:59:54;13.50;66.50
78649;DHT22;67962;47.310;9.642;2023-04-24T08:02:19;13.70;67.60
78649;DHT22;67962;47.310;9.642;2023-04-24T08:04:47;13.90;67.00
78649;DHT22;67962;47.310;9.642;2023-04-24T08:07:12;14.00;66.20
78649;DHT22;67962;47.310;9.642;2023-04-24T08:09:38;14.10;66.40
78649;DHT22;67962;47.310;9.642;2023-04-24T08:12:04;14.20;66.20
78649;DHT22;67962;47.310;9.642;2023-04-24T08:14:30;14.50;64.80
78649;DHT22;67962;47.310;9.642;2023-04-24T08:16:55;14.80;64.90
78649;DHT22;67962;47.310;9.642;2023-04-24T08:19:21;14.90;62.50
78649;DHT22;67962;47.310;9.642;2023-04-24T08:21:47;14.80;60.00
78649;DHT22;67962;47.310;9.642;2023-04-24T08:24:13;14.60;61.80
78649;DHT22;67962;47.310;9.642;2023-04-24T08:26:39;14.80;63.40
78649;DHT22;67962;47.310;9.642;2023-04-24T08:29:05;15.00;61.40
78649;DHT22;67962;47.310;9.642;2023-04-24T08:31:32;15.30;63.30
78649;DHT22;67962;47.310;9.642;2023-04-24T08:33:58;15.10;62.80
78649;DHT22;67962;47.310;9.642;2023-04-24T08:36:25;14.80;61.20
78649;DHT22;67962;47.310;9.642;2023-04-24T08:38:51;14.50;62.40
78649;DHT22;67962;47.310;9.642;2023-04-24T08:41:18;14.20;61.70
78649;DHT22;67962;47.310;9.642;2023-04-24T08:43:46;14.10;61.80
78649;DHT22;67962;47.310;9.642;2023-04-24T08:46:13;13.80;62.70
78649;DHT22;67962;47.310;9.642;2023-04-24T08:48:39;13.70;64.90
78649;DHT22;67962;47.310;9.642;2023-04-24T08:51:08;13.60;65.30
78649;DHT22;67962;47.310;9.642;2023-04-24T08:53:35;13.60;65.00
78649;DHT22;67962;47.310;9.642;2023-04-24T08:56:01;13.30;62.60
78649;DHT22;67962;47.310;9.642;2023-04-24T08:58:28;12.90;63.50
78649;DHT22;67962;47.310;9.642;2023-04-24T09:00:57;12.60;63.90
78649;DHT22;67962;47.310;9.642;2023-04-24T09:03:23;12.40;64.50
78649;DHT22;67962;47.310;9.642;2023-04-24T09:05:51;12.30;65.80
78649;DHT22;67962;47.310;9.642;2023-04-24T09:08:18;12.50;68.80
78649;DHT22;67962;47.310;9.642;2023-04-24T09:10:44;13.10;67.00
78649;DHT22;67962;47.310;9.642;2023-04-24T09:13:10;13.20;65.20
78649;DHT22;67962;47.310;9.642;2023-04-24T09:15:38;13.30;67.00
78649;DHT22;67962;47.310;9.642;2023-04-24T09:18:04;13.70;64.70
78649;DHT22;67962;47.310;9.642;2023-04-24T09:20:30;13.90;63.70
78649;DHT22;67962;47.310;9.642;2023-04-24T09:22:59;13.90;63.10
78649;DHT22;67962;47.310;9.642;2023-04-24T09:25:34;13.90;61.60
78649;DHT22;67962;47.310;9.642;2023-04-24T09:28:04;13.90;62.70
78649;DHT22;67962;47.310;9.642;2023-04-24T09:30:31;14.10;61.70
78649;DHT22;67962;47.310;9.642;2023-04-24T09:33:15;14.50;61.10
78649;DHT22;67962;47.310;9.642;2023-04-24T09:35:42;15.00;61.80
78649;DHT22;67962;47.310;9.642;2023-04-24T09:38:08;15.30;59.00
78649;DHT22;67962;47.310;9.642;2023-04-24T09:40:35;15.60;58.20
78649;DHT22;67962;47.310;9.642;2023-04-24T09:43:02;16.00;56.70
78649;DHT22;67962;47.310;9.642;2023-04-24T09:45:38;16.30;57.40
78649;DHT22;67962;47.310;9.642;2023-04-24T09:48:05;16.80;57.80
78649;DHT22;67962;47.310;9.642;2023-04-24T09:50:32;17.30;56.00
78649;DHT22;67962;47.310;9.642;2023-04-24T09:53:05;17.70;54.40
78649;DHT22;67962;47.310;9.642;2023-04-24T09:55:39;17.70;51.00
78649;DHT22;67962;47.310;9.642;2023-04-24T09:58:08;17.40;51.60
78649;DHT22;67962;47.310;9.642;2023-04-24T10:00:33;17.30;51.20
78649;DHT22;67962;47.310;9.642;2023-04-24T10:03:01;16.90;52.20
78649;DHT22;67962;47.310;9.642;2023-04-24T10:05:34;16.90;52.90
78649;DHT22;67962;47.310;9.642;2023-04-24T10:08:03;16.80;51.20
78649;DHT22;67962;47.310;9.642;2023-04-24T10:10:30;16.20;51.30
78649;DHT22;67962;47.310;9.642;2023-04-24T10:12:56;15.60;53.00
78649;DHT22;67962;47.310;9.642;2023-04-24T10:15:22;15.10;54.50
78649;DHT22;67962;47.310;9.642;2023-04-24T10:17:49;14.80;54.70
78649;DHT22;67962;47.310;9.642;2023-04-24T10:20:22;14.50;56.90
78649;DHT22;67962;47.310;9.642;2023-04-24T10:22:49;14.20;57.70
78649;DHT22;67962;47.310;9.642;2023-04-24T10:25:20;14.20;58.30
78649;DHT22;67962;47.310;9.642;2023-04-24T10:27:47;14.30;59.90
78649;DHT22;67962;47.310;9.642;2023-04-24T10:30:13;14.50;60.30
78649;DHT22;67962;47.310;9.642;2023-04-24T10:32:39;14.70;60.40
78649;DHT22;67962;47.310;9.642;2023-04-24T10:35:07;15.10;58.20
78649;DHT22;67962;47.310;9.642;2023-04-24T10:37:45;15.30;60.20
78649;DHT22;67962;47.310;9.642;2023-04-24T10:40:12;15.40;57.90
78649;DHT22;67962;47.310;9.642;2023-04-24T10:42:41;15.40;58.10
78649;DHT22;67962;47.310;9.642;2023-04-24T10:45:20;15.40;55.80
78649;DHT22;67962;47.310;9.642;2023-04-24T10:47:54;15.20;56.00
78649;DHT22;67962;47.310;9.642;2023-04-24T10:50:21;15.30;55.20
78649;DHT22;67962;47.310;9.642;2023-04-24T10:52:48;15.20;54.70
78649;DHT22;67962;47.310;9.642;2023-04-24T10:55:17;15.10;53.50
78649;DHT22;67962;47.310;9.642;2023-04-24T10:58:05;14.90;56.10
78649;DHT22;67962;47.310;9.642;2023-04-24T11:00:31;14.80;55.50
78649;DHT22;67962;47.310;9.642;2023-04-24T11:02:57;14.70;57.10
78649;DHT22;67962;47.310;9.642;2023-04-24T11:05:49;14.70;57.60
78649;DHT22;67962;47.310;9.642;2023-04-24T11:10:54;14.60;56.60
78649;DHT22;67962;47.310;9.642;2023-04-24T11:14:06;14.50;58.70
78649;DHT22;67962;47.310;9.642;2023-04-24T11:16:35;14.60;56.40
78649;DHT22;67962;47.310;9.642;2023-04-24T11:19:08;14.40;56.20
78649;DHT22;67962;47.310;9.642;2023-04-24T11:21:44;14.40;56.40
78649;DHT22;67962;47.310;9.642;2023-04-24T11:24:27;14.80;58.30
78649;DHT22;67962;47.310;9.642;2023-04-24T11:26:55;15.50;58.60
78649;DHT22;67962;47.310;9.642;2023-04-24T11:29:22;15.90;55.60
78649;DHT22;67962;47.310;9.642;2023-04-24T11:31:49;16.10;52.10
78649;DHT22;67962;47.310;9.642;2023-04-24T11:34:18;15.90;52.10
78649;DHT22;67962;47.310;9.642;2023-04-24T11:36:47;15.80;53.60
78649;DHT22;67962;47.310;9.642;2023-04-24T11:39:14;15.70;52.80
78649;DHT22;67962;47.310;9.642;2023-04-24T11:41:40;15.70;54.20
78649;DHT22;67962;47.310;9.642;2023-04-24T11:44:08;15.70;51.70
78649;DHT22;67962;47.310;9.642;2023-04-24T11:46:33;15.50;51.60
78649;DHT22;67962;47.310;9.642;2023-04-24T11:49:00;15.40;50.10
78649;DHT22;67962;47.310;9.642;2023-04-24T11:51:27;15.30;53.00
78649;DHT22;67962;47.310;9.642;2023-04-24T11:53:56;15.30;54.20
78649;DHT22;67962;47.310;9.642;2023-04-24T11:56:23;15.40;54.90
78649;DHT22;67962;47.310;9.642;2023-04-24T11:58:51;15.50;52.20
78649;DHT22;67962;47.310;9.642;2023-04-24T12:01:17;15.40;51.30
78649;DHT22;67962;47.310;9.642;2023-04-24T12:03:50;15.50;51.10
78649;DHT22;67962;47.310;9.642;2023-04-24T12:06:24;15.50;51.20
78649;DHT22;67962;47.310;9.642;2023-04-24T12:08:52;15.70;52.20
78649;DHT22;67962;47.310;9.642;2023-04-24T12:11:17;15.80;49.90
78649;DHT22;67962;47.310;9.642;2023-04-24T12:13:44;15.80;48.70
78649;DHT22;67962;47.310;9.642;2023-04-24T12:16:10;15.80;48.10
78649;DHT22;67962;47.310;9.642;2023-04-24T12:18:42;15.80;49.70
78649;DHT22;67962;47.310;9.642;2023-04-24T12:21:21;16.00;50.50
78649;DHT22;67962;47.310;9.642;2023-04-24T12:23:47;16.20;50.90
78649;DHT22;67962;47.310;9.642;2023-04-24T12:26:21;16.70;51.30
78649;DHT22;67962;47.310;9.642;2023-04-24T12:28:49;17.10;50.40
78649;DHT22;67962;47.310;9.642;2023-04-24T12:31:15;17.00;48.60
78649;DHT22;67962;47.310;9.642;2023-04-24T12:33:42;16.80;49.70
78649;DHT22;67962;47.310;9.642;2023-04-24T12:36:10;16.50;49.90
78649;DHT22;67962;47.310;9.642;2023-04-24T12:38:37;16.30;50.70
78649;DHT22;67962;47.310;9.642;2023-04-24T12:41:11;16.10;50.30
78649;DHT22;67962;47.310;9.642;2023-04-24T12:43:37;15.70;50.00
78649;DHT22;67962;47.310;9.642;2023-04-24T12:46:04;15.30;54.10
78649;DHT22;67962;47.310;9.642;2023-04-24T12:48:30;14.70;57.70
78649;DHT22;67962;47.310;9.642;2023-04-24T12:50:59;14.50;58.70
78649;DHT22;67962;47.310;9.642;2023-04-24T12:53:28;14.70;60.30
78649;DHT22;67962;47.310;9.642;2023-04-24T12:55:56;15.00;58.60
78649;DHT22;67962;47.310;9.642;2023-04-24T12:58:21;15.00;57.10
78649;DHT22;67962;47.310;9.642;2023-04-24T13:00:47;14.80;58.30
78649;DHT22;67962;47.310;9.642;2023-04-24T13:03:14;15.00;59.40
78649;DHT22;67962;47.310;9.642;2023-04-24T13:05:40;15.10;62.40
78649;DHT22;67962;47.310;9.642;2023-04-24T13:08:06;15.00;58.80
78649;DHT22;67962;47.310;9.642;2023-04-24T13:10:31;14.70;58.00
78649;DHT22;67962;47.310;9.642;2023-04-24T13:12:57;14.40;61.00
78649;DHT22;67962;47.310;9.642;2023-04-24T13:15:23;14.20;61.50
78649;DHT22;67962;47.310;9.642;2023-04-24T13:17:50;14.10;62.70
78649;DHT22;67962;47.310;9.642;2023-04-24T13:20:15;13.90;63.00
78649;DHT22;67962;47.310;9.642;2023-04-24T13:22:41;13.80;61.30
78649;DHT22;67962;47.310;9.642;2023-04-24T13:25:07;13.60;62.00
78649;DHT22;67962;47.310;9.642;2023-04-24T13:27:33;13.40;60.70
78649;DHT22;67962;47.310;9.642;2023-04-24T13:29:58;13.30;61.70
78649;DHT22;67962;47.310;9.642;2023-04-24T13:32:24;13.30;63.00
78649;DHT22;67962;47.310;9.642;2023-04-24T13:34:50;13.40;61.30
78649;DHT22;67962;47.310;9.642;2023-04-24T13:37:16;13.60;60.00
78649;DHT22;67962;47.310;9.642;2023-04-24T13:39:42;13.90;60.40
78649;DHT22;67962;47.310;9.642;2023-04-24T13:42:08;14.20;61.70
78649;DHT22;67962;47.310;9.642;2023-04-24T13:44:33;14.30;61.50
78649;DHT22;67962;47.310;9.642;2023-04-24T13:46:59;14.30;57.20
78649;DHT22;67962;47.310;9.642;2023-04-24T13:49:25;14.10;59.70
78649;DHT22;67962;47.310;9.642;2023-04-24T13:51:52;14.10;59.40
78649;DHT22;67962;47.310;9.642;2023-04-24T13:54:18;14.10;57.90
78649;DHT22;67962;47.310;9.642;2023-04-24T13:56:44;14.00;60.30
78649;DHT22;67962;47.310;9.642;2023-04-24T13:59:14;13.80;58.60
78649;DHT22;67962;47.310;9.642;2023-04-24T14:01:40;13.70;58.10
78649;DHT22;67962;47.310;9.642;2023-04-24T14:04:05;13.50;59.10
78649;DHT22;67962;47.310;9.642;2023-04-24T14:06:32;13.50;57.40
78649;DHT22;67962;47.310;9.642;2023-04-24T14:08:58;13.50;60.60
78649;DHT22;67962;47.310;9.642;2023-04-24T14:11:23;13.40;60.60
78649;DHT22;67962;47.310;9.642;2023-04-24T14:13:49;13.40;60.00
78649;DHT22;67962;47.310;9.642;2023-04-24T14:16:15;13.60;61.00
78649;DHT22;67962;47.310;9.642;2023-04-24T14:18:41;13.80;61.00
78649;DHT22;67962;47.310;9.642;2023-04-24T14:21:07;14.00;60.40
78649;DHT22;67962;47.310;9.642;2023-04-24T14:23:33;14.40;60.20
78649;DHT22;67962;47.310;9.642;2023-04-24T14:25:59;14.80;55.00
78649;DHT22;67962;47.310;9.642;2023-04-24T14:28:25;14.70;55.50
78649;DHT22;67962;47.310;9.642;2023-04-24T14:30:52;14.80;54.70
78649;DHT22;67962;47.310;9.642;2023-04-24T14:33:18;15.00;55.10
78649;DHT22;67962;47.310;9.642;2023-04-24T14:35:43;15.20;54.50
78649;DHT22;67962;47.310;9.642;2023-04-24T14:38:10;15.40;53.60
78649;DHT22;67962;47.310;9.642;2023-04-24T14:40:36;15.60;52.90
78649;DHT22;67962;47.310;9.642;2023-04-24T14:43:02;15.80;51.80
78649;DHT22;67962;47.310;9.642;2023-04-24T14:45:27;15.80;51.00
78649;DHT22;67962;47.310;9.642;2023-04-24T14:47:53;15.90;50.90
78649;DHT22;67962;47.310;9.642;2023-04-24T14:50:19;15.80;47.00
78649;DHT22;67962;47.310;9.642;2023-04-24T14:52:46;15.60;48.60
78649;DHT22;67962;47.310;9.642;2023-04-24T14:55:12;15.50;50.20
78649;DHT22;67962;47.310;9.642;2023-04-24T14:57:38;15.30;49.50
78649;DHT22;67962;47.310;9.642;2023-04-24T15:00:05;14.90;50.70
78649;DHT22;67962;47.310;9.642;2023-04-24T15:02:33;14.70;50.60
78649;DHT22;67962;47.310;9.642;2023-04-24T15:04:59;14.50;49.50
78649;DHT22;67962;47.310;9.642;2023-04-24T15:07:25;14.50;52.90
78649;DHT22;67962;47.310;9.642;2023-04-24T15:09:51;14.50;51.20
78649;DHT22;67962;47.310;9.642;2023-04-24T15:12:16;14.70;52.30
78649;DHT22;67962;47.310;9.642;2023-04-24T15:14:42;14.80;51.40
78649;DHT22;67962;47.310;9.642;2023-04-24T15:17:08;14.90;53.40
78649;DHT22;67962;47.310;9.642;2023-04-24T15:19:34;15.00;50.70
78649;DHT22;67962;47.310;9.642;2023-04-24T15:21:59;15.00;49.00
78649;DHT22;67962;47.310;9.642;2023-04-24T15:24:25;15.10;47.90
78649;DHT22;67962;47.310;9.642;2023-04-24T15:26:51;15.20;50.00
78649;DHT22;67962;47.310;9.642;2023-04-24T15:29:17;15.30;50.70
78649;DHT22;67962;47.310;9.642;2023-04-24T15:31:42;15.30;51.10